createdAt,value
2018-06-28T00:01:52.484Z,18.63
2018-06-28T00:04:21.684Z,18.65
2018-06-28T00:06:51.405Z,18.68
2018-06-28T00:09:20.582Z,18.68
2018-06-28T00:11:49.840Z,18.68
2018-06-28T00:14:18.992Z,18.70
2018-06-28T00:16:48.204Z,18.68
2018-06-28T00:19:17.378Z,18.70
2018-06-28T00:21:46.594Z,18.71
2018-06-28T00:24:15.809Z,18.73
2018-06-28T00:26:44.919Z,18.73
2018-06-28T00:29:14.166Z,18.75
2018-06-28T00:31:43.446Z,18.78
2018-06-28T00:34:12.277Z,18.77
2018-06-28T00:36:41.024Z,18.75
2018-06-28T00:39:10.966Z,18.74
2018-06-28T00:41:40.266Z,18.67
2018-06-28T00:44:09.540Z,18.62
2018-06-28T00:46:38.249Z,18.61
2018-06-28T00:49:07.447Z,18.64
2018-06-28T00:51:36.171Z,18.67
2018-06-28T00:54:04.945Z,18.71
2018-06-28T00:56:33.663Z,18.73
2018-06-28T00:59:02.391Z,18.71
2018-06-28T01:01:31.513Z,18.73
2018-06-28T01:04:00.702Z,18.71
2018-06-28T01:06:29.993Z,18.66
2018-06-28T01:08:59.188Z,18.66
2018-06-28T01:11:28.398Z,18.68
2018-06-28T01:13:57.609Z,18.72
2018-06-28T01:16:26.582Z,18.74
2018-06-28T01:18:55.629Z,18.73
2018-06-28T01:21:24.325Z,18.75
2018-06-28T01:23:53.029Z,18.73
2018-06-28T01:26:21.765Z,18.70
2018-06-28T01:28:50.589Z,18.71
2018-06-28T01:31:19.715Z,18.65
2018-06-28T01:33:49.026Z,18.65
2018-06-28T01:36:18.226Z,18.70
2018-06-28T01:38:47.446Z,18.75
2018-06-28T01:41:16.532Z,18.75
2018-06-28T01:43:46.466Z,18.75
2018-06-28T01:46:16.207Z,18.73
2018-06-28T01:48:45.683Z,18.68
2018-06-28T01:51:14.942Z,18.65
2018-06-28T01:53:44.159Z,18.63
2018-06-28T01:56:13.345Z,18.64
2018-06-28T01:58:42.546Z,18.62
2018-06-28T02:01:11.739Z,18.67
2018-06-28T02:03:41.223Z,18.73
2018-06-28T02:06:10.241Z,18.77
2018-06-28T02:08:39.229Z,18.75
2018-06-28T02:11:08.429Z,18.74
2018-06-28T02:13:37.642Z,18.75
2018-06-28T02:16:06.871Z,18.75
2018-06-28T02:18:36.047Z,18.75
2018-06-28T02:21:05.347Z,18.75
2018-06-28T02:23:34.572Z,18.68
2018-06-28T02:26:03.746Z,18.61
2018-06-28T02:28:32.861Z,18.63
2018-06-28T02:31:02.117Z,18.64
2018-06-28T02:33:31.030Z,18.65
2018-06-28T02:35:59.742Z,18.67
2018-06-28T02:38:28.897Z,18.65
2018-06-28T02:40:58.102Z,18.61
2018-06-28T02:43:27.398Z,18.51
2018-06-28T02:45:56.695Z,18.49
2018-06-28T02:48:25.611Z,18.55
2018-06-28T02:50:54.622Z,18.59
2018-06-28T02:53:23.687Z,18.60
2018-06-28T02:55:52.687Z,18.61
2018-06-28T02:58:21.909Z,18.61
2018-06-28T03:00:50.875Z,18.62
2018-06-28T03:03:20.177Z,18.65
2018-06-28T03:05:49.081Z,18.69
2018-06-28T03:08:18.271Z,18.74
2018-06-28T03:10:47.261Z,18.77
2018-06-28T03:13:16.570Z,18.78
2018-06-28T03:15:45.738Z,18.82
2018-06-28T03:18:14.933Z,18.78
2018-06-28T03:20:44.177Z,18.74
2018-06-28T03:23:13.232Z,18.74
2018-06-28T03:25:42.462Z,18.71
2018-06-28T03:28:11.621Z,18.71
2018-06-28T03:30:40.851Z,18.76
2018-06-28T03:33:10.031Z,18.82
2018-06-28T03:35:39.221Z,18.86
2018-06-28T03:38:08.562Z,18.91
2018-06-28T03:40:37.829Z,18.96
2018-06-28T03:43:07.046Z,18.99
2018-06-28T03:45:36.238Z,19.06
2018-06-28T03:48:05.430Z,19.09
2018-06-28T03:50:34.452Z,19.13
2018-06-28T03:53:03.614Z,19.16
2018-06-28T03:55:32.815Z,19.17
2018-06-28T03:58:02.384Z,19.17
2018-06-28T04:00:31.540Z,19.19
2018-06-28T04:03:00.750Z,19.20
2018-06-28T04:05:29.450Z,19.19
2018-06-28T04:07:58.493Z,19.22
2018-06-28T04:10:27.554Z,19.21
2018-06-28T04:12:56.691Z,19.17
2018-06-28T04:15:25.726Z,19.12
2018-06-28T04:17:54.929Z,19.11
2018-06-28T04:20:24.106Z,19.14
2018-06-28T04:22:53.283Z,19.16
2018-06-28T04:25:22.492Z,19.24
2018-06-28T04:27:51.689Z,19.30
2018-06-28T04:30:20.919Z,19.40
2018-06-28T04:32:50.098Z,19.43
2018-06-28T04:35:19.561Z,19.48
2018-06-28T04:37:48.778Z,19.52
2018-06-28T04:40:17.974Z,19.61
2018-06-28T04:42:47.274Z,19.74
2018-06-28T04:45:16.578Z,19.84
2018-06-28T04:47:45.306Z,19.90
2018-06-28T04:50:14.022Z,19.92
2018-06-28T04:52:42.763Z,20.00
2018-06-28T04:55:11.462Z,20.05
2018-06-28T04:57:40.558Z,20.11
2018-06-28T05:00:09.717Z,20.17
2018-06-28T05:02:38.910Z,20.30
2018-06-28T05:05:08.105Z,20.32
2018-06-28T05:07:37.217Z,20.35
2018-06-28T05:10:06.554Z,20.43
2018-06-28T05:12:35.813Z,20.60
2018-06-28T05:15:05.013Z,20.79
2018-06-28T05:17:34.218Z,20.91
2018-06-28T05:20:03.401Z,20.98
2018-06-28T05:22:32.639Z,21.02
2018-06-28T05:25:01.808Z,21.14
2018-06-28T05:27:31.007Z,21.12
2018-06-28T05:30:00.415Z,21.26
2018-06-28T05:32:29.369Z,21.43
2018-06-28T05:34:58.642Z,21.79
2018-06-28T05:37:28.005Z,21.98
2018-06-28T05:39:57.310Z,22.12
2018-06-28T05:42:26.422Z,22.22
2018-06-28T05:44:55.593Z,22.48
2018-06-28T05:47:24.827Z,23.34
2018-06-28T05:49:54.087Z,23.75
2018-06-28T05:52:23.328Z,24.89
2018-06-28T05:54:52.504Z,25.44
2018-06-28T05:57:21.685Z,25.23
2018-06-28T05:59:50.920Z,24.94
2018-06-28T06:02:20.077Z,24.92
2018-06-28T06:04:49.277Z,25.95
2018-06-28T06:07:18.478Z,29.20
2018-06-28T06:09:47.735Z,32.34
2018-06-28T06:12:16.930Z,33.78
2018-06-28T06:14:46.204Z,33.20
2018-06-28T06:17:15.382Z,32.91
2018-06-28T06:19:44.578Z,30.86
2018-06-28T06:22:13.775Z,29.02
2018-06-28T06:24:42.965Z,28.35
2018-06-28T06:27:12.178Z,27.92
2018-06-28T06:29:41.437Z,27.32
2018-06-28T06:32:10.627Z,27.28
2018-06-28T06:34:39.853Z,26.92
2018-06-28T06:37:09.092Z,26.75
2018-06-28T06:39:38.053Z,26.97
2018-06-28T06:42:07.256Z,26.94
2018-06-28T06:44:36.284Z,26.91
2018-06-28T06:47:05.333Z,27.26
2018-06-28T06:49:34.640Z,27.67
2018-06-28T06:52:03.899Z,27.81
2018-06-28T06:54:33.094Z,27.56
2018-06-28T06:57:02.261Z,27.22
2018-06-28T06:59:31.523Z,26.90
2018-06-28T07:02:00.657Z,26.42
2018-06-28T07:04:29.864Z,26.01
2018-06-28T07:06:59.045Z,25.96
2018-06-28T07:09:28.293Z,25.85
2018-06-28T07:11:57.315Z,25.67
2018-06-28T07:14:26.525Z,25.66
2018-06-28T07:16:55.727Z,25.64
2018-06-28T07:19:24.936Z,25.59
2018-06-28T07:21:54.008Z,26.11
2018-06-28T07:24:23.119Z,26.23
2018-06-28T07:26:52.427Z,26.18
2018-06-28T07:29:21.722Z,26.33
2018-06-28T07:31:51.050Z,26.65
2018-06-28T07:34:20.166Z,27.01
2018-06-28T07:36:49.447Z,27.21
2018-06-28T07:39:18.646Z,26.83
2018-06-28T07:41:47.822Z,26.89
2018-06-28T07:44:17.001Z,27.01
2018-06-28T07:46:46.237Z,27.03
2018-06-28T07:49:19.554Z,27.00
2018-06-28T07:51:49.034Z,26.98
2018-06-28T07:54:18.535Z,26.75
2018-06-28T07:56:47.536Z,26.63
2018-06-28T07:59:16.243Z,26.69
2018-06-28T08:01:44.950Z,27.13
2018-06-28T08:04:14.221Z,27.15
2018-06-28T08:06:42.918Z,27.05
2018-06-28T08:09:11.612Z,27.49
2018-06-28T08:11:40.752Z,28.28
2018-06-28T08:14:09.787Z,29.49
2018-06-28T08:16:39.039Z,29.68
2018-06-28T08:19:08.098Z,29.97
2018-06-28T08:21:37.217Z,30.07
2018-06-28T08:24:06.353Z,29.51
2018-06-28T08:26:35.562Z,28.92
2018-06-28T08:29:04.713Z,27.80
2018-06-28T08:31:33.957Z,26.99
2018-06-28T08:34:03.227Z,26.04
2018-06-28T08:36:32.681Z,25.61
2018-06-28T08:39:01.826Z,25.16
2018-06-28T08:41:31.086Z,25.22
2018-06-28T08:44:00.209Z,25.57
2018-06-28T08:46:29.530Z,25.82
2018-06-28T08:48:58.984Z,26.30
2018-06-28T08:51:28.121Z,26.54
2018-06-28T08:53:57.353Z,26.42
2018-06-28T08:56:26.424Z,26.33
2018-06-28T08:58:55.626Z,26.39
2018-06-28T09:01:24.967Z,26.39
2018-06-28T09:03:54.142Z,26.57
2018-06-28T09:06:23.222Z,26.97
2018-06-28T09:08:52.408Z,27.45
2018-06-28T09:11:21.613Z,28.60
2018-06-28T09:13:50.845Z,29.78
2018-06-28T09:16:20.014Z,32.03
2018-06-28T09:18:49.240Z,33.54
2018-06-28T09:21:18.573Z,35.39
2018-06-28T09:23:47.701Z,35.05
2018-06-28T09:26:16.847Z,35.28
2018-06-28T09:28:46.909Z,33.91
2018-06-28T09:31:16.229Z,32.88
2018-06-28T09:33:45.563Z,30.96
2018-06-28T09:36:14.571Z,29.87
2018-06-28T09:38:43.494Z,29.46
2018-06-28T09:41:12.810Z,28.76
2018-06-28T09:43:42.112Z,28.85
2018-06-28T09:46:11.551Z,29.45
2018-06-28T09:48:40.664Z,29.64
2018-06-28T09:51:09.872Z,29.80
2018-06-28T09:53:38.912Z,29.50
2018-06-28T09:56:08.341Z,28.99
2018-06-28T09:58:37.501Z,29.55
2018-06-28T10:01:06.807Z,30.13
2018-06-28T10:03:36.047Z,30.43
2018-06-28T10:06:05.186Z,30.66
2018-06-28T10:08:34.293Z,30.32
2018-06-28T10:11:03.503Z,30.08
2018-06-28T10:13:32.699Z,30.19
2018-06-28T10:16:01.933Z,31.12
2018-06-28T10:18:30.981Z,31.96
2018-06-28T10:21:00.042Z,31.83
2018-06-28T10:23:29.466Z,31.35
2018-06-28T10:25:58.499Z,30.83
2018-06-28T10:28:27.533Z,30.98
2018-06-28T10:30:56.519Z,28.90
2018-06-28T10:33:25.677Z,29.08
2018-06-28T10:35:54.875Z,28.85
2018-06-28T10:38:24.055Z,28.56
2018-06-28T10:40:53.345Z,27.86
2018-06-28T10:43:22.471Z,27.76
2018-06-28T10:45:51.643Z,27.55
2018-06-28T10:48:20.906Z,27.15
2018-06-28T10:50:50.058Z,27.04
2018-06-28T10:53:19.136Z,26.86
2018-06-28T10:55:48.283Z,26.86
2018-06-28T10:58:17.444Z,26.89
2018-06-28T11:00:46.675Z,26.74
2018-06-28T11:03:15.846Z,26.60
2018-06-28T11:05:45.059Z,26.71
2018-06-28T11:08:14.253Z,26.50
2018-06-28T11:10:43.453Z,26.13
2018-06-28T11:13:12.653Z,25.86
2018-06-28T11:15:41.958Z,25.51
2018-06-28T11:18:11.154Z,24.99
2018-06-28T11:20:40.326Z,24.29
2018-06-28T11:23:09.527Z,23.58
2018-06-28T11:25:38.666Z,23.15
2018-06-28T11:28:07.818Z,22.72
2018-06-28T11:30:37.126Z,22.36
2018-06-28T11:33:06.432Z,22.11
2018-06-28T11:35:35.722Z,21.92
2018-06-28T11:38:05.036Z,21.78
2018-06-28T11:40:34.230Z,21.57
2018-06-28T11:43:03.763Z,21.45
2018-06-28T11:45:32.939Z,21.27
2018-06-28T11:48:02.778Z,21.05
2018-06-28T11:50:32.165Z,20.81
2018-06-28T11:53:01.233Z,20.65
2018-06-28T11:55:30.325Z,20.49
2018-06-28T11:57:59.620Z,20.41
2018-06-28T12:00:29.065Z,20.39
2018-06-28T12:02:58.335Z,20.26
2018-06-28T12:05:27.400Z,20.26
2018-06-28T12:07:56.685Z,20.30
2018-06-28T12:10:25.985Z,20.37
2018-06-28T12:12:54.979Z,20.50
2018-06-28T12:15:24.125Z,20.56
2018-06-28T12:17:53.169Z,20.57
2018-06-28T12:20:21.985Z,20.52
2018-06-28T12:22:50.832Z,20.55
2018-06-28T12:25:19.678Z,20.60
2018-06-28T12:27:48.441Z,20.65
2018-06-28T12:30:17.241Z,20.66
2018-06-28T12:32:46.018Z,20.64
2018-06-28T12:35:14.907Z,20.59
2018-06-28T12:37:44.097Z,20.56
2018-06-28T12:40:12.859Z,20.49
2018-06-28T12:42:41.753Z,20.47
2018-06-28T12:45:10.490Z,20.53
2018-06-28T12:47:51.637Z,20.66
2018-06-28T12:50:20.501Z,20.81
2018-06-28T12:52:57.334Z,20.89
2018-06-28T12:55:26.768Z,20.83
2018-06-28T12:57:57.783Z,20.83
2018-06-28T13:00:26.520Z,20.87
2018-06-28T13:02:55.295Z,20.96
2018-06-28T13:05:24.069Z,20.94
2018-06-28T13:07:52.850Z,21.10
2018-06-28T13:10:21.619Z,21.39
2018-06-28T13:12:50.398Z,21.73
2018-06-28T13:15:19.153Z,22.07
2018-06-28T13:17:47.893Z,22.37
2018-06-28T13:20:19.983Z,22.58
2018-06-28T13:22:48.821Z,22.73
2018-06-28T13:25:17.590Z,22.80
2018-06-28T13:27:46.377Z,22.84
2018-06-28T13:30:15.839Z,22.78
2018-06-28T13:32:44.663Z,22.75
2018-06-28T13:35:13.584Z,22.73
2018-06-28T13:37:45.148Z,22.71
2018-06-28T13:40:19.142Z,22.70
2018-06-28T13:42:51.389Z,22.63
2018-06-28T13:45:23.703Z,22.58
2018-06-28T13:47:52.594Z,22.48
2018-06-28T13:50:21.385Z,22.40
2018-06-28T13:52:50.103Z,22.29
2018-06-28T13:55:18.903Z,22.28
2018-06-28T13:57:47.935Z,22.24
2018-06-28T14:00:16.974Z,22.29
2018-06-28T14:02:46.197Z,22.38
2018-06-28T14:05:15.419Z,22.42
2018-06-28T14:07:44.646Z,22.40
2018-06-28T14:10:14.209Z,22.45
2018-06-28T14:12:43.279Z,22.49
2018-06-28T14:15:12.475Z,22.47
2018-06-28T14:17:41.674Z,22.41
2018-06-28T14:20:11.102Z,22.44
2018-06-28T14:22:40.405Z,22.51
2018-06-28T14:25:09.851Z,22.65
2018-06-28T14:27:39.043Z,22.77
2018-06-28T14:30:09.763Z,22.83
2018-06-28T14:32:38.810Z,23.10
2018-06-28T14:35:08.211Z,23.31
2018-06-28T14:37:37.465Z,23.54
2018-06-28T14:40:06.882Z,23.72
2018-06-28T14:42:36.267Z,23.79
2018-06-28T14:45:05.477Z,23.88
2018-06-28T14:47:34.854Z,23.98
2018-06-28T14:50:04.079Z,24.18
2018-06-28T14:52:33.209Z,24.25
2018-06-28T14:55:02.672Z,24.33
2018-06-28T14:57:31.709Z,24.53
2018-06-28T15:00:00.727Z,24.61
2018-06-28T15:02:29.780Z,24.65
2018-06-28T15:04:59.095Z,24.81
2018-06-28T15:07:28.357Z,24.64
2018-06-28T15:09:57.465Z,24.56
2018-06-28T15:12:26.691Z,24.42
2018-06-28T15:14:55.906Z,24.32
2018-06-28T15:17:25.073Z,24.19
2018-06-28T15:19:54.231Z,24.20
2018-06-28T15:22:23.398Z,24.05
2018-06-28T15:24:52.634Z,24.03
2018-06-28T15:27:21.781Z,24.13
2018-06-28T15:29:51.085Z,23.96
2018-06-28T15:32:20.240Z,24.08
2018-06-28T15:34:49.373Z,24.17
2018-06-28T15:37:18.562Z,24.26
2018-06-28T15:39:47.921Z,24.19
2018-06-28T15:42:17.285Z,24.22
2018-06-28T15:44:46.421Z,24.13
2018-06-28T15:47:15.568Z,24.01
2018-06-28T15:49:44.913Z,24.00
2018-06-28T15:52:14.069Z,24.20
2018-06-28T15:54:43.261Z,24.43
2018-06-28T15:57:12.574Z,24.20
2018-06-28T15:59:41.776Z,24.51
2018-06-28T16:02:10.494Z,24.63
2018-06-28T16:04:39.216Z,24.32
2018-06-28T16:07:08.094Z,24.23
2018-06-28T16:09:36.861Z,24.03
2018-06-28T16:12:05.890Z,23.81
2018-06-28T16:14:34.643Z,23.67
2018-06-28T16:17:03.485Z,23.48
2018-06-28T16:19:32.222Z,23.24
2018-06-28T16:22:00.912Z,23.09
2018-06-28T16:24:29.602Z,23.04
2018-06-28T16:26:58.298Z,22.76
2018-06-28T16:29:27.164Z,22.71
2018-06-28T16:31:56.035Z,22.62
2018-06-28T16:34:24.733Z,22.63
2018-06-28T16:36:53.719Z,22.37
2018-06-28T16:39:22.450Z,22.36
2018-06-28T16:41:51.181Z,22.21
2018-06-28T16:44:19.890Z,22.14
2018-06-28T16:46:48.625Z,22.21
2018-06-28T16:49:17.362Z,22.28
2018-06-28T16:51:46.088Z,22.32
2018-06-28T16:54:14.809Z,22.36
2018-06-28T16:56:43.700Z,22.42
2018-06-28T16:59:12.438Z,22.39
2018-06-28T17:01:41.349Z,22.29
2018-06-28T17:04:10.075Z,22.18
2018-06-28T17:06:39.034Z,22.06
2018-06-28T17:09:09.075Z,21.90
2018-06-28T17:11:37.933Z,21.81
2018-06-28T17:14:07.370Z,21.73
2018-06-28T17:16:36.232Z,21.64
2018-06-28T17:19:05.530Z,21.53
2018-06-28T17:21:34.252Z,21.45
2018-06-28T17:24:02.977Z,21.30
2018-06-28T17:26:31.746Z,21.20
2018-06-28T17:29:00.488Z,21.12
2018-06-28T17:31:29.369Z,20.95
2018-06-28T17:33:58.117Z,20.76
2018-06-28T17:36:26.865Z,20.60
2018-06-28T17:38:55.643Z,20.44
2018-06-28T17:41:24.478Z,20.30
2018-06-28T17:43:53.355Z,20.17
2018-06-28T17:46:22.133Z,20.00
2018-06-28T17:48:50.887Z,19.91
2018-06-28T17:51:19.642Z,19.79
2018-06-28T17:53:48.790Z,19.71
2018-06-28T17:56:17.598Z,19.63
2018-06-28T17:58:46.323Z,19.59
2018-06-28T18:01:15.098Z,19.52
2018-06-28T18:03:43.845Z,19.45
2018-06-28T18:06:12.600Z,19.36
2018-06-28T18:08:41.378Z,19.26
2018-06-28T18:11:10.140Z,19.11
2018-06-28T18:13:38.900Z,18.96
2018-06-28T18:16:07.683Z,18.88
2018-06-28T18:18:36.436Z,18.84
2018-06-28T18:21:05.237Z,18.81
2018-06-28T18:23:34.042Z,18.75
2018-06-28T18:26:02.773Z,18.74
2018-06-28T18:28:31.522Z,18.69
2018-06-28T18:31:00.233Z,18.68
2018-06-28T18:33:28.982Z,18.70
2018-06-28T18:35:57.778Z,18.71
2018-06-28T18:38:26.623Z,17.44
2018-06-28T18:40:55.451Z,18.71
2018-06-28T18:43:24.222Z,18.69
2018-06-28T18:45:53.184Z,18.68
2018-06-28T18:48:22.132Z,18.64
2018-06-28T18:50:51.003Z,18.67
2018-06-28T18:53:19.714Z,18.67
2018-06-28T18:55:48.794Z,18.71
2018-06-28T18:58:17.527Z,18.74
2018-06-28T19:00:46.319Z,18.78
2018-06-28T19:03:15.050Z,18.81
2018-06-28T19:05:43.815Z,18.81
2018-06-28T19:08:12.548Z,18.81
2018-06-28T19:10:46.394Z,18.80
2018-06-28T19:13:15.173Z,18.84
2018-06-28T19:15:48.933Z,18.88
2018-06-28T19:18:17.798Z,18.90
2018-06-28T19:20:50.607Z,19.03
2018-06-28T19:23:51.188Z,19.19
2018-06-28T19:26:20.282Z,19.23
2018-06-28T19:28:49.637Z,19.22
2018-06-28T19:31:23.604Z,19.22
2018-06-28T19:33:52.385Z,19.23
2018-06-28T19:36:21.260Z,19.25
2018-06-28T19:38:55.053Z,19.31
2018-06-28T19:41:29.056Z,19.35
2018-06-28T19:43:57.743Z,19.34
2018-06-28T19:46:26.504Z,19.32
2018-06-28T19:48:55.249Z,19.32
2018-06-28T19:51:30.877Z,19.33
2018-06-28T19:54:02.559Z,19.36
2018-06-28T19:56:31.544Z,19.39
2018-06-28T19:59:00.296Z,19.35
2018-06-28T20:01:34.493Z,19.33
2018-06-28T20:04:08.366Z,19.32
2018-06-28T20:06:37.095Z,19.27
2018-06-28T20:09:08.451Z,19.22
2018-06-28T20:11:37.282Z,19.18
2018-06-28T20:14:11.229Z,19.17
2018-06-28T20:16:45.218Z,19.20
2018-06-28T20:19:19.070Z,19.23
2018-06-28T20:21:47.912Z,19.23
2018-06-28T20:24:16.681Z,19.18
2018-06-28T20:26:50.597Z,19.12
2018-06-28T20:29:24.529Z,19.09
2018-06-28T20:31:58.392Z,19.04
2018-06-28T20:34:27.186Z,18.96
2018-06-28T20:36:55.960Z,18.90
2018-06-28T20:39:24.779Z,18.82
2018-06-28T20:41:53.789Z,18.77
2018-06-28T20:44:22.733Z,18.76
2018-06-28T20:46:51.556Z,18.73
2018-06-28T20:49:20.444Z,18.72
2018-06-28T20:51:49.199Z,18.71
2018-06-28T20:54:18.400Z,18.70
2018-06-28T20:56:47.229Z,18.66
2018-06-28T20:59:16.047Z,18.63
2018-06-28T21:01:44.848Z,18.66
2018-06-28T21:04:13.630Z,18.65
2018-06-28T21:06:42.344Z,18.66
2018-06-28T21:09:11.081Z,18.60
2018-06-28T21:11:39.824Z,18.53
2018-06-28T21:14:08.579Z,18.47
2018-06-28T21:16:37.322Z,18.43
2018-06-28T21:19:06.124Z,18.48
2018-06-28T21:21:34.896Z,18.50
2018-06-28T21:24:03.631Z,18.48
2018-06-28T21:26:32.367Z,18.57
2018-06-28T21:29:01.090Z,18.57
2018-06-28T21:31:29.793Z,18.50
2018-06-28T21:33:58.531Z,18.48
2018-06-28T21:36:27.294Z,18.45
2018-06-28T21:38:56.011Z,18.48
2018-06-28T21:41:24.821Z,18.45
2018-06-28T21:43:53.853Z,18.44
2018-06-28T21:46:22.748Z,18.43
2018-06-28T21:48:51.541Z,18.41
2018-06-28T21:51:20.246Z,18.36
2018-06-28T21:53:48.997Z,18.33
2018-06-28T21:56:17.684Z,18.27
2018-06-28T21:58:46.402Z,18.24
2018-06-28T22:01:15.125Z,18.20
2018-06-28T22:03:43.834Z,18.12
2018-06-28T22:06:12.560Z,18.17
2018-06-28T22:08:41.278Z,18.19
2018-06-28T22:11:10.017Z,18.29
2018-06-28T22:13:38.697Z,18.36
2018-06-28T22:16:07.431Z,18.44
2018-06-28T22:18:36.149Z,18.50
2018-06-28T22:21:04.861Z,18.59
2018-06-28T22:23:33.611Z,18.57
2018-06-28T22:26:02.325Z,18.57
2018-06-28T22:28:31.075Z,18.56
2018-06-28T22:30:59.800Z,18.47
2018-06-28T22:33:28.501Z,18.46
2018-06-28T22:35:57.239Z,18.42
2018-06-28T22:38:25.959Z,18.43
2018-06-28T22:40:54.698Z,18.45
2018-06-28T22:43:23.447Z,18.42
2018-06-28T22:45:52.173Z,18.35
2018-06-28T22:48:20.908Z,18.23
2018-06-28T22:50:49.606Z,18.22
2018-06-28T22:53:18.301Z,18.22
2018-06-28T22:55:47.078Z,18.25
2018-06-28T22:58:15.776Z,18.24
2018-06-28T23:00:44.487Z,18.26
2018-06-28T23:03:13.234Z,18.30
2018-06-28T23:05:41.979Z,18.34
2018-06-28T23:08:10.916Z,18.36
2018-06-28T23:10:39.625Z,18.39
2018-06-28T23:13:08.337Z,18.35
2018-06-28T23:15:37.029Z,18.32
2018-06-28T23:18:05.839Z,18.27
2018-06-28T23:20:34.548Z,18.24
2018-06-28T23:23:03.254Z,18.20
2018-06-28T23:25:32.082Z,18.11
2018-06-28T23:28:00.833Z,18.08
2018-06-28T23:30:29.530Z,18.06
2018-06-28T23:32:58.288Z,18.06
2018-06-28T23:35:27.456Z,18.06
2018-06-28T23:37:56.201Z,18.06
2018-06-28T23:40:24.917Z,18.09
2018-06-28T23:42:53.629Z,18.06
2018-06-28T23:45:22.336Z,18.03
2018-06-28T23:47:51.079Z,18.12
2018-06-28T23:50:19.849Z,18.15
2018-06-28T23:52:48.547Z,18.18
2018-06-28T23:55:17.259Z,18.20
2018-06-28T23:57:45.999Z,18.20
